Time;durP1;ratioP1;P1;durP2;ratioP2;P2;SDS_P1;SDS_P2;PMS_P1;PMS_P2;Temp;Humidity;BMP_temperature;BMP_pressure;BME280_temperature;BME280_humidity;BME280_pressure;Samples;Min_cycle;Max_cycle;Signal;HPM_P1;HPM_P2
2022/03/06 00:01:59;;;;;;;16.43;11.83;;;;;;;-0.39;64.45;100601.19;5051748;28;20224;-59
2022/03/06 00:04:24;;;;;;;18.17;11.57;;;;;;;-0.40;64.81;100595.25;5063134;28;20204;-60
2022/03/06 00:06:50;;;;;;;18.85;12.70;;;;;;;-0.37;65.36;100602.03;5060882;28;20435;-59
2022/03/06 00:09:15;;;;;;;16.37;11.70;;;;;;;-0.52;65.64;100607.91;5063696;28;20193;-59
2022/03/06 00:11:40;;;;;;;22.00;12.30;;;;;;;-0.62;65.81;100607.09;5055495;28;20238;-60
2022/03/06 00:14:06;;;;;;;16.83;12.47;;;;;;;-0.70;65.81;100609.59;5055936;28;20576;-59
2022/03/06 00:16:31;;;;;;;19.57;13.67;;;;;;;-0.74;66.09;100602.88;5054543;28;20251;-61
2022/03/06 00:18:56;;;;;;;19.40;14.03;;;;;;;-0.81;65.88;100608.75;5056573;28;20172;-61
2022/03/06 00:21:22;;;;;;;21.10;13.53;;;;;;;-0.89;66.33;100602.88;5052901;28;20231;-60
2022/03/06 00:23:47;;;;;;;22.07;15.43;;;;;;;-0.93;66.60;100603.72;5058126;28;20177;-60
2022/03/06 00:26:13;;;;;;;18.33;14.80;;;;;;;-1.02;67.09;100605.41;5052739;28;20226;-61
2022/03/06 00:28:38;;;;;;;22.37;16.23;;;;;;;-1.14;67.10;100605.38;5052224;28;20180;-59
2022/03/06 00:31:05;;;;;;;22.93;16.63;;;;;;;-1.21;68.04;100608.72;5033354;28;20248;-59
2022/03/06 00:33:30;;;;;;;20.17;14.20;;;;;;;-1.25;67.53;100614.59;5074488;28;20182;-60
2022/03/06 00:35:55;;;;;;;19.73;14.50;;;;;;;-1.32;67.83;100611.22;5072865;28;20424;-60
2022/03/06 00:38:20;;;;;;;19.40;14.00;;;;;;;-1.31;67.85;100611.22;5072372;28;20694;-59
2022/03/06 00:40:46;;;;;;;19.73;14.50;;;;;;;-1.38;68.34;100609.50;5062188;28;20253;-60
2022/03/06 00:43:12;;;;;;;20.43;13.83;;;;;;;-1.34;68.27;100612.88;5071666;28;20213;-60
2022/03/06 00:45:37;;;;;;;17.93;13.97;;;;;;;-1.49;69.17;100617.06;5072365;28;20171;-61
2022/03/06 00:48:03;;;;;;;20.03;13.47;;;;;;;-1.48;69.53;100615.38;5071978;28;20210;-61
2022/03/06 00:50:28;;;;;;;17.93;12.57;;;;;;;-1.44;69.03;100622.09;5062305;28;20237;-60
2022/03/06 00:52:54;;;;;;;18.63;13.23;;;;;;;-1.50;69.47;100617.91;5071584;28;20335;-59
2022/03/06 00:55:19;;;;;;;16.57;11.87;;;;;;;-1.46;69.50;100617.06;5072195;28;20173;-60
2022/03/06 00:57:44;;;;;;;16.57;11.93;;;;;;;-1.52;69.61;100618.72;5071985;28;20184;-59
2022/03/06 01:00:10;;;;;;;17.97;12.73;;;;;;;-1.53;69.21;100622.91;5063445;28;20487;-60
2022/03/06 01:02:36;;;;;;;19.57;14.70;;;;;;;-1.59;69.12;100619.53;5043836;28;20193;-59
2022/03/06 01:05:02;;;;;;;22.10;15.13;;;;;;;-1.54;68.97;100618.75;5070300;28;20252;-60
2022/03/06 01:07:28;;;;;;;18.63;14.17;;;;;;;-1.58;69.68;100609.44;5069562;28;20657;-60
2022/03/06 01:09:53;;;;;;;18.63;14.47;;;;;;;-1.59;69.74;100611.97;5071452;28;20189;-61
2022/03/06 01:12:18;;;;;;;20.40;14.20;;;;;;;-1.58;70.22;100614.50;5077206;28;20273;-59
2022/03/06 01:14:43;;;;;;;18.33;13.80;;;;;;;-1.60;70.53;100607.75;5071805;28;20181;-60
2022/03/06 01:17:09;;;;;;;18.67;13.97;;;;;;;-1.69;70.77;100599.31;5072227;28;20174;-60
2022/03/06 01:19:34;;;;;;;16.50;13.30;;;;;;;-1.55;70.78;100606.09;5071467;28;20248;-60
2022/03/06 01:21:59;;;;;;;21.47;13.13;;;;;;;-1.52;71.38;100609.47;5077034;28;20649;-60
2022/03/06 01:24:24;;;;;;;15.40;11.90;;;;;;;-1.54;71.03;100612.84;5071552;28;20240;-59
2022/03/06 01:26:50;;;;;;;18.07;13.00;;;;;;;-1.68;71.05;100608.56;5071848;28;20253;-59
2022/03/06 01:29:15;;;;;;;17.73;12.47;;;;;;;-1.54;71.25;100607.78;5071214;28;20179;-61
2022/03/06 01:31:41;;;;;;;18.07;12.93;;;;;;;-1.48;70.86;100602.75;5052966;28;20228;-60
2022/03/06 01:34:06;;;;;;;22.33;12.07;;;;;;;-1.44;70.69;100614.53;5054887;28;20179;-60
2022/03/06 01:36:32;;;;;;;14.20;11.47;;;;;;;-1.41;70.16;100614.56;5052190;28;20220;-62
2022/03/06 01:38:57;;;;;;;16.33;12.07;;;;;;;-1.33;69.98;100607.00;5058079;28;20215;-59
2022/03/06 01:41:23;;;;;;;17.23;12.57;;;;;;;-1.37;69.22;100611.19;5060791;28;20237;-60
2022/03/06 01:43:48;;;;;;;15.00;11.73;;;;;;;-1.33;69.07;100610.38;5065250;28;20220;-60
2022/03/06 01:46:14;;;;;;;18.20;12.27;;;;;;;-1.34;69.20;100615.41;5071882;28;20182;-60
2022/03/06 01:48:40;;;;;;;19.03;14.00;;;;;;;-1.31;69.32;100603.63;5071402;28;20688;-60
2022/03/06 01:51:05;;;;;;;15.83;11.90;;;;;;;-1.26;68.69;100610.41;5061569;28;20218;-59
2022/03/06 01:53:30;;;;;;;14.90;10.87;;;;;;;-1.38;68.86;100612.03;5071131;28;20183;-59
2022/03/06 01:55:56;;;;;;;15.73;11.27;;;;;;;-1.24;68.38;100608.72;5071713;28;20608;-59
2022/03/06 01:58:21;;;;;;;15.93;11.03;;;;;;;-1.30;68.01;100605.34;5071703;28;20240;-60
2022/03/06 02:00:49;;;;;;;21.57;13.80;;;;;;;-1.21;67.94;100601.97;5067559;28;20267;-61
2022/03/06 02:03:16;;;;;;;27.27;16.20;;;;;;;-1.16;67.61;100607.06;5070586;28;20267;-59
2022/03/06 02:05:42;;;;;;;29.93;16.03;;;;;;;-1.14;66.71;100606.22;5071813;28;20186;-61
2022/03/06 02:08:08;;;;;;;24.23;14.57;;;;;;;-1.15;67.20;100603.69;5069794;28;20281;-59
2022/03/06 02:10:33;;;;;;;25.93;14.97;;;;;;;-1.14;67.51;100596.13;5065321;28;20234;-60
2022/03/06 02:12:59;;;;;;;27.63;15.40;;;;;;;-1.12;67.18;100603.69;5083349;28;20171;-59
2022/03/06 02:15:31;;;;;;;23.87;14.43;;;;;;;-1.17;66.84;100598.63;5071593;28;20187;-59
2022/03/06 02:17:57;;;;;;;23.50;14.07;;;;;;;-1.19;66.95;100597.78;5068582;28;20207;-60
2022/03/06 02:20:24;;;;;;;18.13;11.50;;;;;;;-1.25;66.99;100594.41;5064201;28;20460;-59
2022/03/06 02:22:52;;;;;;;16.17;11.23;;;;;;;-1.35;67.39;100596.09;5070259;28;20183;-60
2022/03/06 02:25:32;;;;;;;17.80;12.77;;;;;;;-1.41;67.82;100596.06;5070001;28;20269;-60
2022/03/06 02:28:00;;;;;;;21.77;12.87;;;;;;;-1.40;68.46;100598.59;5069167;28;20459;-59
2022/03/06 02:30:30;;;;;;;20.40;12.30;;;;;;;-1.46;68.97;100599.41;5059877;28;20550;-59
2022/03/06 02:32:58;;;;;;;14.83;9.50;;;;;;;-1.49;68.65;100599.41;5050177;28;20175;-58
2022/03/06 02:35:25;;;;;;;16.57;10.87;;;;;;;-1.48;68.56;100597.72;5051928;28;20236;-59
2022/03/06 02:37:50;;;;;;;15.30;10.93;;;;;;;-1.60;69.24;100600.19;5053099;28;20679;-59
2022/03/06 02:40:18;;;;;;;16.20;10.87;;;;;;;-1.63;69.64;100596.81;5062468;28;20288;-59
2022/03/06 02:42:46;;;;;;;15.17;11.50;;;;;;;-1.68;70.31;100592.59;5073928;28;20232;-60
2022/03/06 02:45:20;;;;;;;17.27;10.83;;;;;;;-1.66;70.13;100593.47;5073681;28;20937;-60
2022/03/06 02:47:47;;;;;;;15.37;10.43;;;;;;;-1.64;70.07;100594.28;5073082;28;20602;-60
2022/03/06 02:50:19;;;;;;;14.20;10.07;;;;;;;-1.75;70.41;100596.75;5063119;28;20476;-61
2022/03/06 02:52:44;;;;;;;16.17;9.83;;;;;;;-1.81;70.02;100590.03;5073809;28;20449;-58
2022/03/06 02:55:11;;;;;;;14.13;10.13;;;;;;;-1.87;70.20;100596.72;5074773;28;20502;-59
2022/03/06 02:57:36;;;;;;;14.13;10.00;;;;;;;-1.79;70.31;100595.06;5072574;28;20182;-60
2022/03/06 03:00:05;;;;;;;13.37;9.60;;;;;;;-1.85;71.03;100584.97;5071270;28;20399;-60
2022/03/06 03:02:30;;;;;;;13.90;9.30;;;;;;;-2.01;71.75;100589.94;5073356;28;20527;-60
2022/03/06 03:04:55;;;;;;;13.00;9.37;;;;;;;-2.09;72.16;100586.53;5074449;28;20416;-59
2022/03/06 03:07:21;;;;;;;11.60;8.90;;;;;;;-2.17;72.80;100589.03;5072657;28;20205;-60
2022/03/06 03:09:46;;;;;;;13.20;9.10;;;;;;;-2.12;72.77;100594.91;5074421;28;20236;-60
2022/03/06 03:12:11;;;;;;;12.63;9.87;;;;;;;-2.09;72.50;100586.53;5080248;28;20237;-61
2022/03/06 03:14:37;;;;;;;14.07;9.73;;;;;;;-2.07;72.40;100587.41;5074375;28;20213;-61
2022/03/06 03:17:05;;;;;;;13.87;9.70;;;;;;;-2.06;72.21;100589.09;5074209;28;20177;-61
2022/03/06 03:19:31;;;;;;;12.87;9.70;;;;;;;-2.05;72.69;100587.41;5073387;28;20268;-59
2022/03/06 03:21:56;;;;;;;12.63;9.93;;;;;;;-2.07;72.46;100594.97;5079271;28;20561;-62
2022/03/06 03:24:24;;;;;;;14.23;9.37;;;;;;;-2.08;72.79;100603.34;5074267;28;20554;-60
2022/03/06 03:26:50;;;;;;;10.70;8.50;;;;;;;-2.13;73.07;100603.31;5072630;28;20213;-59
2022/03/06 03:29:16;;;;;;;13.97;9.67;;;;;;;-2.04;73.20;100606.72;5089013;28;20422;-66
2022/03/06 03:31:41;;;;;;;13.70;9.57;;;;;;;-2.06;73.65;100611.78;5076867;28;20233;-61
2022/03/06 03:34:07;;;;;;;13.70;10.07;;;;;;;-1.94;73.66;100610.97;5076799;28;20177;-60
2022/03/06 03:36:32;;;;;;;12.47;8.87;;;;;;;-1.89;73.49;100606.78;5073958;28;20208;-59
2022/03/06 03:38:57;;;;;;;13.53;9.53;;;;;;;-1.78;72.92;100611.91;5073453;28;20221;-60
2022/03/06 03:41:24;;;;;;;15.57;10.30;;;;;;;-1.77;72.28;100612.72;5062966;28;20316;-59
2022/03/06 03:43:50;;;;;;;12.87;9.97;;;;;;;-1.80;72.30;100611.91;5067253;28;20172;-60
2022/03/06 03:46:15;;;;;;;13.63;9.93;;;;;;;-1.74;72.83;100611.06;5072664;28;20425;-59
2022/03/06 03:48:41;;;;;;;14.40;10.00;;;;;;;-1.64;72.35;100614.47;5073001;28;20178;-58
2022/03/06 03:51:06;;;;;;;13.07;9.13;;;;;;;-1.54;72.00;100615.34;5056549;28;20744;-58
2022/03/06 03:53:32;;;;;;;15.17;9.77;;;;;;;-1.50;71.70;100617.91;5072840;28;20321;-61
2022/03/06 03:55:57;;;;;;;11.37;8.67;;;;;;;-1.42;71.70;100620.44;5073555;28;20220;-61
2022/03/06 03:58:23;;;;;;;12.40;8.73;;;;;;;-1.35;70.99;100619.63;5071689;28;20228;-60
2022/03/06 04:00:57;;;;;;;11.73;9.07;;;;;;;-1.23;70.96;100616.28;5058578;28;20297;-61
2022/03/06 04:03:22;;;;;;;13.23;8.90;;;;;;;-1.16;69.92;100622.19;5072141;28;20188;-60
2022/03/06 04:05:48;;;;;;;11.13;8.33;;;;;;;-1.07;69.58;100626.41;5073416;28;20187;-59
2022/03/06 04:08:13;;;;;;;11.10;8.67;;;;;;;-0.98;69.59;100632.34;5072764;28;20668;-61
2022/03/06 04:10:38;;;;;;;11.87;8.50;;;;;;;-1.07;69.07;100631.47;5068022;28;20299;-61
2022/03/06 04:13:04;;;;;;;13.50;9.87;;;;;;;-1.15;69.36;100628.94;5084044;28;20635;-60
2022/03/06 04:15:29;;;;;;;11.83;8.30;;;;;;;-0.98;69.57;100629.81;5064479;28;20621;-60
2022/03/06 04:17:55;;;;;;;11.23;8.70;;;;;;;-0.84;68.98;100629.00;5084680;28;20265;-60
2022/03/06 04:20:21;;;;;;;12.83;9.17;;;;;;;-0.86;68.98;100630.66;5065439;28;20342;-60
2022/03/06 04:22:46;;;;;;;13.10;9.50;;;;;;;-0.87;67.74;100637.41;5075149;28;20179;-59
2022/03/06 04:25:12;;;;;;;10.77;7.83;;;;;;;-0.70;67.93;100639.94;5071630;28;20192;-60
2022/03/06 04:27:37;;;;;;;13.23;9.07;;;;;;;-0.67;68.00;100642.47;5072138;28;20249;-59
2022/03/06 04:30:04;;;;;;;10.90;8.60;;;;;;;-0.63;68.01;100644.97;5066284;28;20182;-60
2022/03/06 04:32:29;;;;;;;10.50;7.40;;;;;;;-0.54;65.98;100648.34;5067815;28;20292;-59
2022/03/06 04:34:55;;;;;;;9.73;7.03;;;;;;;-0.49;64.50;100645.84;5072920;28;20181;-59
2022/03/06 04:37:20;;;;;;;11.03;8.47;;;;;;;-0.34;62.75;100655.09;5072263;28;20223;-59
2022/03/06 04:39:45;;;;;;;9.60;7.13;;;;;;;-0.27;59.33;100650.88;5088285;28;20184;-59
2022/03/06 04:42:12;;;;;;;11.80;7.23;;;;;;;-0.01;58.34;100654.22;5061343;28;20226;-59
2022/03/06 04:44:37;;;;;;;11.27;7.20;;;;;;;0.10;57.13;100655.88;5072653;28;20214;-61
2022/03/06 04:47:03;;;;;;;8.03;6.83;;;;;;;0.24;56.05;100646.56;5072303;28;20235;-60
2022/03/06 04:49:28;;;;;;;7.83;6.33;;;;;;;0.32;55.79;100649.91;5072059;28;20183;-60
2022/03/06 04:51:54;;;;;;;8.30;6.53;;;;;;;0.36;54.70;100654.94;5061650;28;20228;-59
2022/03/06 04:54:20;;;;;;;8.63;6.53;;;;;;;0.37;55.03;100654.09;5072321;28;20187;-59
2022/03/06 04:56:46;;;;;;;9.10;6.40;;;;;;;0.51;54.47;100646.44;5071007;28;20301;-59
2022/03/06 04:59:11;;;;;;;8.33;6.50;;;;;;;0.44;54.65;100650.72;5071632;28;20555;-59
2022/03/06 05:01:37;;;;;;;9.97;7.00;;;;;;;0.42;54.05;100647.34;5074281;28;20258;-60
2022/03/06 05:04:02;;;;;;;9.97;7.20;;;;;;;0.43;54.17;100649.84;5075497;28;20173;-60
2022/03/06 05:06:28;;;;;;;9.27;6.50;;;;;;;0.34;53.17;100651.59;5072029;28;20189;-61
2022/03/06 05:08:53;;;;;;;7.93;6.33;;;;;;;0.30;53.90;100653.31;5070401;28;20180;-61
2022/03/06 05:11:19;;;;;;;7.60;5.93;;;;;;;0.19;53.18;100658.38;5072180;28;20223;-60
2022/03/06 05:13:44;;;;;;;10.37;6.57;;;;;;;0.33;53.04;100655.81;5070651;28;20222;-59
2022/03/06 05:16:10;;;;;;;9.23;5.57;;;;;;;0.42;53.07;100660.84;5072304;28;20184;-60
2022/03/06 05:18:35;;;;;;;8.93;6.47;;;;;;;0.44;52.34;100664.19;5071734;28;20204;-60
2022/03/06 05:21:02;;;;;;;7.13;5.83;;;;;;;0.36;52.52;100670.13;5067749;28;20223;-60
2022/03/06 05:23:27;;;;;;;7.50;6.10;;;;;;;0.35;52.37;100673.50;5062272;28;20211;-61
2022/03/06 05:25:54;;;;;;;9.07;6.37;;;;;;;0.36;52.74;100668.47;5059493;28;20181;-60
2022/03/06 05:28:20;;;;;;;7.13;5.63;;;;;;;0.21;52.33;100668.50;5050749;28;20201;-61
2022/03/06 05:30:45;;;;;;;6.73;5.60;;;;;;;0.21;52.46;100669.34;5043000;28;20236;-60
2022/03/06 05:33:11;;;;;;;8.93;6.03;;;;;;;0.20;52.05;100672.72;5061865;28;20185;-60
2022/03/06 05:35:36;;;;;;;6.63;5.23;;;;;;;0.14;52.01;100670.22;5051982;28;20178;-60
2022/03/06 05:38:01;;;;;;;7.17;6.10;;;;;;;0.18;52.19;100669.34;5059708;28;20256;-60
2022/03/06 05:40:27;;;;;;;6.93;6.23;;;;;;;0.23;52.07;100674.41;5064553;28;20244;-59
2022/03/06 05:42:52;;;;;;;6.33;5.40;;;;;;;0.08;52.52;100666.00;5070423;28;20197;-61
2022/03/06 05:45:17;;;;;;;7.20;6.07;;;;;;;0.23;51.94;100667.63;5071446;28;20173;-60
2022/03/06 05:47:43;;;;;;;7.47;5.80;;;;;;;0.19;51.38;100677.75;5071295;28;20203;-60
2022/03/06 05:50:09;;;;;;;7.00;5.77;;;;;;;0.22;51.14;100681.13;5061352;28;20195;-60
2022/03/06 05:52:35;;;;;;;8.43;5.87;;;;;;;0.31;51.10;100686.19;5070357;28;20225;-60
2022/03/06 05:55:00;;;;;;;6.97;5.30;;;;;;;0.23;51.37;100687.88;5071679;28;20172;-59
2022/03/06 05:57:25;;;;;;;10.23;6.30;;;;;;;0.32;50.90;100697.13;5070785;28;20643;-59
2022/03/06 05:59:51;;;;;;;7.00;5.17;;;;;;;0.40;50.34;100687.00;5071363;28;20225;-59
2022/03/06 06:02:17;;;;;;;12.47;5.77;;;;;;;0.31;50.82;100688.72;5044526;28;20266;-61
2022/03/06 06:04:42;;;;;;;9.73;5.43;;;;;;;0.31;51.04;100696.31;5071639;28;20180;-61
2022/03/06 06:07:09;;;;;;;7.50;5.57;;;;;;;0.34;50.80;100697.16;5070330;28;20184;-60
2022/03/06 06:09:34;;;;;;;6.67;5.80;;;;;;;0.51;50.20;100703.00;5070311;28;20176;-60
2022/03/06 06:12:00;;;;;;;7.83;6.07;;;;;;;0.51;50.42;100702.16;5063736;28;20217;-59
2022/03/06 06:14:25;;;;;;;7.57;5.53;;;;;;;0.56;49.76;100703.81;5074966;28;20181;-59
2022/03/06 06:16:50;;;;;;;7.57;5.50;;;;;;;0.55;49.76;100711.44;5074709;28;21411;-59
2022/03/06 06:19:16;;;;;;;8.23;5.43;;;;;;;0.59;50.22;100721.53;5074849;28;20196;-59
2022/03/06 06:21:43;;;;;;;7.40;6.00;;;;;;;0.62;49.68;100710.53;5077863;28;20216;-59
2022/03/06 06:24:10;;;;;;;7.63;6.10;;;;;;;0.57;49.69;100715.66;5073680;28;20663;-59
2022/03/06 06:26:36;;;;;;;7.10;6.40;;;;;;;0.52;49.42;100719.03;5074882;28;20551;-59
2022/03/06 06:29:03;;;;;;;8.83;6.47;;;;;;;0.52;49.94;100721.56;5074369;28;20203;-59
2022/03/06 06:31:28;;;;;;;9.17;5.90;;;;;;;0.54;49.67;100723.22;5063614;28;20586;-61
2022/03/06 06:33:54;;;;;;;8.00;5.50;;;;;;;0.52;49.65;100719.88;5074720;28;20179;-60
2022/03/06 06:36:20;;;;;;;7.70;6.10;;;;;;;0.53;50.42;100724.06;5073499;28;20283;-59
2022/03/06 06:38:45;;;;;;;8.33;7.00;;;;;;;0.69;50.28;100717.28;5074318;28;20644;-60
2022/03/06 06:41:11;;;;;;;7.60;5.67;;;;;;;0.76;49.86;100718.09;5064013;28;20266;-60
2022/03/06 06:43:36;;;;;;;7.03;5.93;;;;;;;0.86;50.67;100718.91;5074201;28;20258;-60
2022/03/06 06:46:01;;;;;;;7.57;6.20;;;;;;;1.05;49.61;100728.09;5056890;28;20188;-59
2022/03/06 06:48:28;;;;;;;7.57;5.90;;;;;;;1.04;49.63;100723.03;5074364;28;20253;-60
2022/03/06 06:50:53;;;;;;;9.07;5.97;;;;;;;1.18;49.38;100728.88;5059268;28;20236;-61
2022/03/06 06:53:19;;;;;;;7.60;5.97;;;;;;;1.32;50.30;100738.09;5073643;28;20532;-59
2022/03/06 06:55:44;;;;;;;7.33;5.93;;;;;;;1.49;50.22;100730.38;5074490;28;20200;-60
2022/03/06 06:58:10;;;;;;;6.83;6.03;;;;;;;1.51;50.01;100736.28;5073802;28;20177;-60
2022/03/06 07:00:35;;;;;;;9.80;6.07;;;;;;;1.56;50.62;100735.41;5068928;28;20224;-60
2022/03/06 07:03:00;;;;;;;7.10;6.07;;;;;;;1.72;50.29;100725.13;5085690;28;20172;-61
2022/03/06 07:05:26;;;;;;;8.23;5.97;;;;;;;1.84;49.73;100734.34;5074160;28;20541;-59
2022/03/06 07:07:53;;;;;;;10.37;7.47;;;;;;;1.90;48.43;100736.84;5066572;28;20316;-61
2022/03/06 07:10:19;;;;;;;9.80;6.07;;;;;;;1.96;49.70;100739.31;5049302;28;20190;-60
2022/03/06 07:12:46;;;;;;;7.60;6.37;;;;;;;2.10;48.57;100734.94;5069129;28;20186;-62
2022/03/06 07:15:13;;;;;;;8.60;6.70;;;;;;;2.03;47.41;100735.03;5059844;28;20683;-60
2022/03/06 07:17:40;;;;;;;9.10;6.33;;;;;;;2.01;47.76;100737.59;5062426;28;20187;-59
2022/03/06 07:20:06;;;;;;;7.23;6.23;;;;;;;1.93;47.80;100736.78;5042794;28;20171;-60
2022/03/06 07:22:32;;;;;;;8.13;7.23;;;;;;;2.15;48.07;100739.16;5052621;28;20185;-59
2022/03/06 07:24:57;;;;;;;7.33;6.43;;;;;;;2.20;47.63;100748.41;5053328;28;20187;-61
2022/03/06 07:27:22;;;;;;;9.13;6.73;;;;;;;2.41;47.24;100739.72;5052425;28;20567;-60
2022/03/06 07:29:48;;;;;;;7.20;6.03;;;;;;;2.22;46.95;100741.63;5053537;28;20178;-61
2022/03/06 07:32:14;;;;;;;8.57;6.73;;;;;;;2.32;46.34;100736.44;5058816;28;20214;-61
2022/03/06 07:34:39;;;;;;;8.30;7.17;;;;;;;2.52;46.26;100734.53;5052049;28;20233;-59
2022/03/06 07:37:05;;;;;;;8.17;6.50;;;;;;;2.40;46.16;100740.56;5054924;28;20228;-59
2022/03/06 07:39:30;;;;;;;7.27;6.10;;;;;;;2.96;45.24;100734.84;5056400;28;20183;-59
2022/03/06 07:41:56;;;;;;;6.83;6.13;;;;;;;3.59;43.84;100738.22;5056632;28;20705;-59
2022/03/06 07:44:21;;;;;;;7.43;6.63;;;;;;;4.61;41.19;100728.81;5070678;28;20219;-60
2022/03/06 07:46:46;;;;;;;7.70;6.90;;;;;;;5.29;39.32;100739.31;5070387;28;20219;-60
2022/03/06 07:49:11;;;;;;;7.53;6.63;;;;;;;5.34;39.31;100727.28;5057923;28;20426;-60
2022/03/06 07:51:37;;;;;;;6.97;6.03;;;;;;;4.60;39.91;100744.13;5071439;28;20258;-63
2022/03/06 07:54:03;;;;;;;7.80;6.63;;;;;;;3.94;40.87;100738.53;5059134;28;20186;-60
2022/03/06 07:56:28;;;;;;;8.00;7.20;;;;;;;3.32;41.90;100742.84;5051647;28;20243;-61
2022/03/06 07:58:54;;;;;;;6.97;6.27;;;;;;;3.05;42.62;100750.00;5054019;28;20662;-61
2022/03/06 08:01:19;;;;;;;8.30;6.60;;;;;;;3.21;42.69;100748.09;5042033;28;20232;-60
2022/03/06 08:03:44;;;;;;;7.93;6.93;;;;;;;3.22;42.72;100746.38;5059109;28;20192;-60
2022/03/06 08:06:10;;;;;;;7.30;6.60;;;;;;;3.08;42.72;100751.66;5051947;28;20181;-60
2022/03/06 08:08:35;;;;;;;8.07;7.20;;;;;;;3.13;42.90;100749.91;5051518;28;20186;-60
2022/03/06 08:11:01;;;;;;;8.13;6.47;;;;;;;3.33;42.69;100751.31;5061346;28;20231;-61
2022/03/06 08:13:26;;;;;;;8.03;7.13;;;;;;;3.49;42.54;100757.03;5074184;28;20515;-59
2022/03/06 08:15:51;;;;;;;8.00;6.67;;;;;;;3.54;42.25;100751.00;5069248;28;20239;-59
2022/03/06 08:18:16;;;;;;;10.10;7.50;;;;;;;3.76;42.31;100749.84;5081537;28;20186;-60
2022/03/06 08:20:42;;;;;;;7.53;6.83;;;;;;;3.69;41.26;100755.03;5062484;28;20236;-59
2022/03/06 08:23:07;;;;;;;7.47;6.37;;;;;;;3.51;41.86;100753.59;5071981;28;20181;-62
2022/03/06 08:25:32;;;;;;;7.47;6.57;;;;;;;3.47;42.12;100768.94;5072513;28;20202;-61
2022/03/06 08:27:58;;;;;;;9.33;6.70;;;;;;;3.35;42.20;100768.25;5072376;28;20200;-60
2022/03/06 08:30:23;;;;;;;8.17;6.60;;;;;;;3.21;42.52;100768.44;5044019;28;20232;-61
2022/03/06 08:32:48;;;;;;;8.67;6.77;;;;;;;3.17;42.34;100768.50;5085054;28;20169;-59
2022/03/06 08:35:14;;;;;;;8.37;7.50;;;;;;;3.38;42.52;100770.72;5072453;28;20663;-59
2022/03/06 08:37:39;;;;;;;7.40;6.60;;;;;;;3.51;41.67;100770.56;5070392;28;20242;-60
2022/03/06 08:40:06;;;;;;;7.50;6.10;;;;;;;3.68;41.86;100768.63;5060668;28;20249;-61
2022/03/06 08:42:31;;;;;;;7.70;6.37;;;;;;;3.71;41.38;100762.66;5071379;28;20213;-59
2022/03/06 08:44:56;;;;;;;7.60;6.57;;;;;;;3.52;41.29;100772.25;5072313;28;20191;-61
2022/03/06 08:47:22;;;;;;;8.37;7.43;;;;;;;3.33;41.38;100769.13;5071566;28;20216;-59
2022/03/06 08:49:47;;;;;;;6.93;6.20;;;;;;;3.42;41.32;100769.00;5072329;28;20536;-61
2022/03/06 08:52:12;;;;;;;9.40;6.37;;;;;;;3.54;41.13;100773.91;5061127;28;20243;-61
2022/03/06 08:54:38;;;;;;;8.43;6.70;;;;;;;3.40;41.00;100773.28;5072202;28;20172;-60
2022/03/06 08:57:03;;;;;;;10.27;7.67;;;;;;;3.41;41.30;100774.09;5071953;28;20179;-59
2022/03/06 08:59:29;;;;;;;8.80;7.00;;;;;;;3.49;41.20;100777.38;5071598;28;20260;-60
2022/03/06 09:01:55;;;;;;;7.20;6.47;;;;;;;3.50;41.90;100777.34;5076519;28;20755;-59
2022/03/06 09:04:25;;;;;;;7.53;6.67;;;;;;;3.48;41.94;100784.16;5070729;28;20708;-59
2022/03/06 09:06:52;;;;;;;7.60;6.67;;;;;;;3.42;41.07;100786.78;5070388;28;20195;-61
2022/03/06 09:09:17;;;;;;;6.93;6.07;;;;;;;3.46;41.43;100777.41;5069251;28;20541;-62
2022/03/06 09:11:45;;;;;;;11.63;7.03;;;;;;;3.51;41.93;100768.00;5072301;28;20226;-60
2022/03/06 09:14:10;;;;;;;10.03;7.37;;;;;;;4.14;41.10;100773.81;5070779;28;20207;-60
2022/03/06 09:16:36;;;;;;;8.27;7.40;;;;;;;4.31;40.00;100778.63;5071993;28;20669;-60
2022/03/06 09:19:01;;;;;;;8.43;7.03;;;;;;;5.08;38.92;100774.59;5071370;28;20169;-59
2022/03/06 09:21:27;;;;;;;9.43;6.80;;;;;;;6.53;35.96;100774.63;5060972;28;20287;-59
2022/03/06 09:23:53;;;;;;;7.30;6.60;;;;;;;7.65;33.70;100769.69;5071344;28;20177;-61
2022/03/06 09:26:18;;;;;;;8.03;7.00;;;;;;;8.72;32.13;100764.44;5071976;28;20176;-61
2022/03/06 09:28:43;;;;;;;8.30;6.33;;;;;;;9.41;30.52;100763.53;5071087;28;20664;-60
2022/03/06 09:31:09;;;;;;;8.40;7.33;;;;;;;9.23;30.27;100756.53;5070171;28;20223;-61
2022/03/06 09:33:34;;;;;;;8.00;7.20;;;;;;;9.03;30.49;100763.28;5078401;28;20195;-61
2022/03/06 09:36:01;;;;;;;7.30;6.60;;;;;;;9.07;30.40;100761.41;5070363;28;20267;-60
2022/03/06 09:38:26;;;;;;;9.17;7.50;;;;;;;8.64;30.65;100764.69;5070721;28;20278;-62
2022/03/06 09:40:54;;;;;;;7.87;7.13;;;;;;;8.99;30.19;100766.84;5061240;28;20731;-59
2022/03/06 09:43:20;;;;;;;8.13;6.73;;;;;;;8.05;30.34;100770.94;5060791;28;20204;-61
2022/03/06 09:45:46;;;;;;;17.77;13.00;;;;;;;8.33;30.45;100775.16;5075078;28;20269;-60
2022/03/06 09:48:15;;;;;;;9.40;6.93;;;;;;;9.13;29.74;100776.59;5074988;28;20228;-60
2022/03/06 09:50:42;;;;;;;8.30;7.17;;;;;;;8.85;29.54;100778.44;5062058;28;20224;-60
2022/03/06 09:53:07;;;;;;;6.93;6.23;;;;;;;8.56;29.12;100775.22;5062839;28;20188;-61
2022/03/06 09:55:33;;;;;;;7.13;6.53;;;;;;;9.37;28.46;100779.97;5075322;28;20182;-60
2022/03/06 09:57:58;;;;;;;7.43;6.77;;;;;;;8.89;28.69;100776.59;5073551;28;20185;-61
2022/03/06 10:00:25;;;;;;;7.50;6.80;;;;;;;8.27;29.68;100783.06;5068206;28;20231;-61
2022/03/06 10:03:04;;;;;;;7.70;6.93;;;;;;;6.44;30.84;100788.50;5073804;28;20183;-60
2022/03/06 10:05:30;;;;;;;7.37;6.67;;;;;;;7.04;30.98;100786.00;5073337;28;20183;-60
2022/03/06 10:08:14;;;;;;;7.87;7.17;;;;;;;6.29;32.17;100790.56;5073060;28;20219;-60
2022/03/06 10:10:39;;;;;;;8.27;7.27;;;;;;;5.88;33.68;100789.84;5069181;28;20664;-61
2022/03/06 10:13:16;;;;;;;6.57;5.97;;;;;;;5.02;33.13;100784.94;5085665;28;20252;-61
2022/03/06 10:16:02;;;;;;;6.43;5.83;;;;;;;6.32;31.17;100781.16;5075053;28;20323;-60
2022/03/06 10:18:32;;;;;;;6.17;5.57;;;;;;;7.25;29.42;100785.38;5073276;28;20674;-61
2022/03/06 10:21:03;;;;;;;7.07;6.27;;;;;;;8.01;28.19;100779.63;5064295;28;20310;-60
2022/03/06 10:23:29;;;;;;;6.70;5.90;;;;;;;8.91;27.41;100772.28;5065170;28;20177;-60
2022/03/06 10:26:01;;;;;;;7.00;5.73;;;;;;;9.61;26.25;100774.75;5074695;28;20165;-60
2022/03/06 10:28:27;;;;;;;7.83;5.60;;;;;;;8.96;26.46;100779.81;5074010;28;20612;-60
2022/03/06 10:30:52;;;;;;;7.00;6.03;;;;;;;7.58;28.97;100769.06;5070920;28;20270;-61
2022/03/06 10:33:22;;;;;;;6.90;6.30;;;;;;;8.05;27.97;100770.94;5083626;28;20259;-59
2022/03/06 10:35:50;;;;;;;7.60;6.83;;;;;;;7.25;30.08;100772.56;5074705;28;20184;-60
2022/03/06 10:38:26;;;;;;;7.20;6.50;;;;;;;6.24;31.95;100773.66;5071825;28;20286;-60
2022/03/06 10:40:53;;;;;;;8.53;7.30;;;;;;;6.35;31.70;100776.81;5058115;28;20230;-60
2022/03/06 10:43:23;;;;;;;8.73;7.63;;;;;;;5.20;32.75;100770.97;5062228;28;20181;-61
2022/03/06 10:46:04;;;;;;;8.97;7.40;;;;;;;4.96;33.75;100774.84;5072010;28;20176;-61
2022/03/06 10:48:29;;;;;;;8.57;7.63;;;;;;;5.03;34.08;100767.94;5071354;28;20229;-61
2022/03/06 10:50:59;;;;;;;9.30;6.80;;;;;;;4.92;33.68;100768.97;5062535;28;20649;-60
2022/03/06 10:53:25;;;;;;;8.00;7.13;;;;;;;4.98;33.93;100768.03;5062695;28;20178;-60
2022/03/06 10:55:52;;;;;;;8.40;7.50;;;;;;;5.08;33.57;100761.84;5071538;28;20579;-60
2022/03/06 10:58:19;;;;;;;8.00;7.20;;;;;;;4.90;33.83;100770.72;5072684;28;20191;-62
2022/03/06 11:00:46;;;;;;;8.87;7.97;;;;;;;5.03;34.42;100757.72;5064489;28;20303;-60
2022/03/06 11:03:13;;;;;;;9.03;7.90;;;;;;;5.20;34.23;100765.88;5067407;28;20211;-60
2022/03/06 11:05:43;;;;;;;9.90;6.80;;;;;;;4.97;34.23;100766.34;5071979;28;20183;-60
2022/03/06 11:08:12;;;;;;;7.87;7.07;;;;;;;4.82;33.83;100765.75;5070837;28;20220;-60
2022/03/06 11:10:40;;;;;;;9.40;7.23;;;;;;;4.68;34.22;100763.50;5063094;28;20223;-60
2022/03/06 11:13:05;;;;;;;8.67;7.40;;;;;;;4.74;34.65;100765.09;5060274;28;20230;-59
2022/03/06 11:15:31;;;;;;;8.80;7.90;;;;;;;4.61;34.62;100767.03;5072692;28;20570;-59
2022/03/06 11:18:00;;;;;;;8.77;7.30;;;;;;;4.67;34.12;100754.16;5072274;28;20269;-60
2022/03/06 11:20:29;;;;;;;7.43;6.73;;;;;;;4.80;34.58;100753.91;5062554;28;20304;-60